ednb.de Segler
Luftsportverein Zellertal e.V.   
am Flugplatz Arnbruck (EDNB)     
Aktuelles Metar (minütlich - Station EDNB):

METAR EDNB 250343Z 09007G11KT //// ////// M10/M14 Q1022=

AKTUELLES WETTER



Großwetterlage


Wetterkarte



Messwerte Station Wettzell


Geodätisches Observatorium Wettzell



Wind






Satellitenbild






Satellitenfilm


Satellitenfilm




Regenradar






Blitzkarte






Bayerwaldwebcams



VORHERSAGEN



Vorhersagekarten für Profis


wetter3.de bietet verschiedene Vorhersagekarten verschiedener Wettermodelle



Segelflugwetterbericht


Zu finden hier (direkte Verlinkung verboten): VFR Wetter



dreitagewetter.de


Drei Tage Vorhersage für Arnbruck



Vorhersage-Meteogramm (ECMWF+ICON)


profiwetter.ch



Global-Modell (GFS)






Station Großer Arber






Station Stadt Regen






Weitere Wetterlinks


Regional Atmospheric Soaring Prediction

Meteo-Parapente